TimeCET,TemperatureF,Dew PointF,Humidity,Sea Level PressureIn,VisibilityMPH,Wind Direction,Wind SpeedMPH,Gust SpeedMPH,PrecipitationIn,Events,Conditions,WindDirDegrees,DateUTC
12:55 AM,44.6,44.6,100,30.01,6.2,WSW,6.9,-,N/A,,Partly Cloudy,250,2014-02-03 23:55:00
1:00 AM,44,44,99,30.04,11,WSW,6.9,,,,Scattered Clouds,250,2014-02-04 00:00:00
1:55 AM,44.6,42.8,93,30.01,6.2,NW,3.5,-,N/A,,Partly Cloudy,320,2014-02-04 00:55:00
2:55 AM,42.8,42.8,100,30.04,6.2,NW,2.3,-,N/A,,Partly Cloudy,310,2014-02-04 01:55:00
3:55 AM,42.8,42.8,100,30.04,6.2,WNW,4.6,-,N/A,,Partly Cloudy,290,2014-02-04 02:55:00
4:00 AM,42,42,100,30.04,11,WNW,4.6,,,,Scattered Clouds,290,2014-02-04 03:00:00
4:55 AM,41.0,41.0,100,30.04,6.2,WNW,3.5,-,N/A,,Partly Cloudy,300,2014-02-04 03:55:00
5:55 AM,42.8,41.0,93,30.04,-9999.0,NW,5.8,-,N/A,,Clear,310,2014-02-04 04:55:00
6:55 AM,41.0,41.0,100,30.06,6.2,West,8.1,-,N/A,,Partly Cloudy,260,2014-02-04 05:55:00
7:00 AM,41,41,100,30.07,12,West,8.1,,,,,260,2014-02-04 06:00:00
7:55 AM,44.6,44.6,100,30.06,6.2,NW,6.9,-,N/A,,Partly Cloudy,320,2014-02-04 06:55:00
8:55 AM,51.8,46.4,82,30.06,6.2,WNW,8.1,-,N/A,,Partly Cloudy,300,2014-02-04 07:55:00
9:55 AM,55.4,44.6,67,30.06,-9999.0,West,9.2,-,N/A,,Clear,280,2014-02-04 08:55:00
10:00 AM,55,45,59,30.09,6,West,9.2,,,,,280,2014-02-04 09:00:00
10:55 AM,59.0,44.6,59,30.09,6.2,NW,9.2,-,N/A,,Partly Cloudy,310,2014-02-04 09:55:00
11:55 AM,60.8,42.8,52,30.09,6.2,West,9.2,-,N/A,,Partly Cloudy,270,2014-02-04 10:55:00
12:55 PM,60.8,32.0,34,30.06,6.2,WSW,12.7,-,N/A,,Scattered Clouds,250,2014-02-04 11:55:00
1:00 PM,61,32,22,30.09,6,WSW,12.7,,,,,250,2014-02-04 12:00:00
1:55 PM,62.6,33.8,34,30.06,6.2,West,12.7,-,N/A,,Scattered Clouds,260,2014-02-04 12:55:00
2:55 PM,60.8,35.6,39,30.06,6.2,West,10.4,-,N/A,,Scattered Clouds,260,2014-02-04 13:55:00
3:55 PM,57.2,37.4,48,30.06,6.2,WSW,10.4,-,N/A,,Scattered Clouds,250,2014-02-04 14:55:00
4:00 PM,57,37,35,30.08,6,WSW,10.4,,,,Partly Cloudy,250,2014-02-04 15:00:00
4:55 PM,55.4,46.4,72,30.06,6.2,WSW,6.9,-,N/A,,Partly Cloudy,250,2014-02-04 15:55:00
5:55 PM,50.0,48.2,94,30.06,6.2,WSW,8.1,-,N/A,,Partly Cloudy,240,2014-02-04 16:55:00
6:55 PM,50.0,48.2,94,30.06,6.2,West,4.6,-,N/A,,Partly Cloudy,260,2014-02-04 17:55:00
7:00 PM,50,49,95,30.09,6,West,4.6,,,,,260,2014-02-04 18:00:00
7:55 PM,48.2,48.2,100,30.09,6.2,Calm,Calm,-,N/A,,Partly Cloudy,0,2014-02-04 18:55:00
8:55 PM,48.2,48.2,100,30.09,6.2,NNW,2.3,-,N/A,,Partly Cloudy,330,2014-02-04 19:55:00
9:55 PM,46.4,46.4,100,30.09,6.2,West,3.5,-,N/A,,Partly Cloudy,270,2014-02-04 20:55:00
10:00 PM,46,46,100,30.11,6,West,3.5,,,,Scattered Clouds,270,2014-02-04 21:00:00
10:55 PM,44.6,44.6,100,30.09,6.2,WNW,3.5,-,N/A,,Partly Cloudy,300,2014-02-04 21:55:00
11:55 PM,44.6,44.6,100,30.09,6.2,West,4.6,-,N/A,,Partly Cloudy,270,2014-02-04 22:55:00